createdAt,value
2018-09-06T00:00:06.231Z,998.72
2018-09-06T00:01:06.227Z,998.76
2018-09-06T00:02:06.222Z,998.77
2018-09-06T00:03:06.217Z,998.79
2018-09-06T00:04:06.216Z,998.77
2018-09-06T00:05:06.212Z,998.80
2018-09-06T00:06:06.203Z,998.76
2018-09-06T00:07:06.233Z,998.80
2018-09-06T00:08:06.194Z,998.82
2018-09-06T00:09:06.188Z,998.82
2018-09-06T00:10:06.184Z,998.82
2018-09-06T00:11:06.178Z,998.81
2018-09-06T00:12:06.174Z,998.79
2018-09-06T00:13:06.169Z,998.80
2018-09-06T00:14:06.166Z,998.81
2018-09-06T00:15:06.159Z,998.83
2018-09-06T00:16:06.155Z,998.83
2018-09-06T00:17:06.151Z,998.82
2018-09-06T00:18:06.146Z,998.83
2018-09-06T00:19:06.141Z,998.85
2018-09-06T00:20:06.386Z,998.88
2018-09-06T00:21:06.133Z,998.86
2018-09-06T00:22:06.127Z,998.85
2018-09-06T00:23:06.121Z,998.87
2018-09-06T00:24:06.117Z,998.89
2018-09-06T00:25:06.114Z,998.84
2018-09-06T00:26:06.112Z,998.85
2018-09-06T00:27:06.103Z,998.83
2018-09-06T00:28:06.099Z,998.80
2018-09-06T00:29:06.094Z,998.80
2018-09-06T00:30:06.090Z,998.78
2018-09-06T00:31:06.084Z,998.79
2018-09-06T00:32:06.080Z,998.79
2018-09-06T00:33:06.076Z,998.76
2018-09-06T00:34:06.072Z,998.79
2018-09-06T00:35:06.066Z,998.75
2018-09-06T00:36:06.061Z,998.71
2018-09-06T00:37:06.057Z,998.72
2018-09-06T00:38:06.054Z,998.68
2018-09-06T00:39:06.047Z,998.69
2018-09-06T00:40:06.046Z,998.63
2018-09-06T00:41:06.037Z,998.62
2018-09-06T00:42:06.035Z,998.61
2018-09-06T00:43:06.030Z,998.57
2018-09-06T00:44:06.022Z,998.57
2018-09-06T00:45:06.017Z,998.56
2018-09-06T00:46:06.014Z,998.56
2018-09-06T00:47:06.010Z,998.55
2018-09-06T00:48:06.004Z,998.53
2018-09-06T00:49:05.998Z,998.52
2018-09-06T00:50:05.993Z,998.48
2018-09-06T00:51:05.987Z,998.47
2018-09-06T00:52:05.983Z,998.45
2018-09-06T00:53:05.977Z,998.38
2018-09-06T00:54:05.974Z,998.41
2018-09-06T00:55:05.970Z,998.39
2018-09-06T00:56:05.964Z,998.40
2018-09-06T00:57:05.963Z,998.38
2018-09-06T00:58:05.956Z,998.41
2018-09-06T00:59:05.950Z,998.38
2018-09-06T01:00:05.946Z,998.35
2018-09-06T01:01:05.942Z,998.35
2018-09-06T01:02:05.936Z,998.35
2018-09-06T01:03:05.931Z,998.30
2018-09-06T01:04:05.927Z,998.33
2018-09-06T01:05:05.923Z,998.35
2018-09-06T01:06:05.919Z,998.32
2018-09-06T01:07:05.912Z,998.31
2018-09-06T01:08:05.908Z,998.30
2018-09-06T01:09:06.154Z,998.32
2018-09-06T01:10:05.899Z,998.25
2018-09-06T01:11:05.893Z,998.24
2018-09-06T01:12:05.890Z,998.19
2018-09-06T01:13:05.885Z,998.21
2018-09-06T01:14:05.880Z,998.17
2018-09-06T01:15:05.874Z,998.19
2018-09-06T01:16:05.872Z,998.17
2018-09-06T01:17:05.866Z,998.18
2018-09-06T01:18:05.860Z,998.19
2018-09-06T01:19:05.856Z,998.22
2018-09-06T01:20:05.851Z,998.25
2018-09-06T01:21:05.846Z,998.23
2018-09-06T01:22:05.843Z,998.24
2018-09-06T01:23:05.837Z,998.21
2018-09-06T01:24:05.838Z,998.22
2018-09-06T01:25:05.827Z,998.20
2018-09-06T01:26:05.825Z,998.23
2018-09-06T01:27:05.821Z,998.21
2018-09-06T01:28:05.814Z,998.19
2018-09-06T01:29:05.809Z,998.18
2018-09-06T01:30:05.804Z,998.21
2018-09-06T01:31:05.799Z,998.17
2018-09-06T01:32:05.801Z,998.22
2018-09-06T01:33:05.789Z,998.22
2018-09-06T01:34:05.786Z,998.23
2018-09-06T01:35:05.779Z,998.19
2018-09-06T01:36:05.776Z,998.18
2018-09-06T01:37:05.771Z,998.14
2018-09-06T01:38:05.766Z,998.14
2018-09-06T01:39:05.763Z,998.14
2018-09-06T01:40:05.756Z,998.14
2018-09-06T01:41:05.752Z,998.11
2018-09-06T01:42:05.751Z,998.10
2018-09-06T01:43:05.742Z,998.09
2018-09-06T01:44:05.738Z,998.08
2018-09-06T01:45:05.733Z,998.02
2018-09-06T01:46:05.730Z,997.98
2018-09-06T01:47:05.724Z,997.94
2018-09-06T01:48:05.719Z,997.97
2018-09-06T01:49:05.717Z,997.99
2018-09-06T01:50:05.708Z,997.99
2018-09-06T01:51:05.704Z,998.00
2018-09-06T01:52:05.903Z,997.98
2018-09-06T01:53:05.698Z,997.98
2018-09-06T01:54:05.690Z,997.94
2018-09-06T01:55:05.685Z,997.97
2018-09-06T01:56:05.681Z,997.94
2018-09-06T01:57:05.676Z,997.95
2018-09-06T01:58:05.674Z,997.96
2018-09-06T01:59:05.669Z,997.94
2018-09-06T02:00:05.762Z,997.95
2018-09-06T02:01:05.657Z,997.94
2018-09-06T02:02:05.657Z,997.91
2018-09-06T02:03:05.647Z,997.93
2018-09-06T02:04:05.642Z,997.96
2018-09-06T02:05:05.637Z,997.97
2018-09-06T02:06:05.633Z,997.93
2018-09-06T02:07:05.626Z,997.93
2018-09-06T02:08:05.623Z,997.93
2018-09-06T02:09:05.622Z,997.87
2018-09-06T02:10:05.615Z,997.85
2018-09-06T02:11:05.609Z,997.80
2018-09-06T02:12:05.604Z,997.80
2018-09-06T02:13:05.599Z,997.81
2018-09-06T02:14:05.595Z,997.80
2018-09-06T02:15:05.590Z,997.78
2018-09-06T02:16:05.584Z,997.76
2018-09-06T02:17:05.579Z,997.73
2018-09-06T02:18:05.576Z,997.77
2018-09-06T02:19:05.572Z,997.72
2018-09-06T02:20:05.565Z,997.74
2018-09-06T02:21:05.560Z,997.75
2018-09-06T02:22:05.557Z,997.71
2018-09-06T02:23:05.549Z,997.73
2018-09-06T02:24:05.799Z,997.75
2018-09-06T02:25:05.541Z,997.72
2018-09-06T02:26:05.541Z,997.74
2018-09-06T02:27:05.531Z,997.76
2018-09-06T02:28:05.525Z,997.72
2018-09-06T02:29:05.522Z,997.75
2018-09-06T02:30:05.767Z,997.76
2018-09-06T02:31:05.511Z,997.75
2018-09-06T02:32:05.505Z,997.73
2018-09-06T02:33:05.501Z,997.69
2018-09-06T02:34:05.498Z,997.65
2018-09-06T02:35:05.490Z,997.64
2018-09-06T02:36:05.485Z,997.64
2018-09-06T02:37:05.482Z,997.60
2018-09-06T02:38:05.477Z,997.56
2018-09-06T02:39:05.472Z,997.55
2018-09-06T02:40:05.468Z,997.58
2018-09-06T02:41:05.461Z,997.59
2018-09-06T02:42:05.455Z,997.54
2018-09-06T02:43:05.455Z,997.54
2018-09-06T02:44:05.448Z,997.51
2018-09-06T02:45:05.442Z,997.52
2018-09-06T02:46:05.439Z,997.51
2018-09-06T02:47:05.433Z,997.51
2018-09-06T02:48:05.426Z,997.51
2018-09-06T02:49:05.421Z,997.54
2018-09-06T02:50:05.416Z,997.56
2018-09-06T02:51:05.410Z,997.60
2018-09-06T02:52:05.412Z,997.61
2018-09-06T02:53:05.401Z,997.62
2018-09-06T02:54:05.397Z,997.70
2018-09-06T02:55:05.390Z,997.74
2018-09-06T02:56:05.385Z,997.79
2018-09-06T02:57:05.380Z,997.82
2018-09-06T02:58:05.375Z,997.89
2018-09-06T02:59:05.368Z,997.97
2018-09-06T03:00:05.365Z,997.96
2018-09-06T03:01:05.360Z,997.97
2018-09-06T03:02:05.355Z,997.93
2018-09-06T03:03:05.350Z,997.95
2018-09-06T03:04:05.345Z,997.96
2018-09-06T03:05:05.339Z,997.97
2018-09-06T03:06:05.335Z,997.98
2018-09-06T03:07:05.330Z,997.96
2018-09-06T03:08:05.325Z,997.94
2018-09-06T03:09:05.321Z,997.92
2018-09-06T03:10:05.315Z,997.88
2018-09-06T03:11:05.309Z,997.92
2018-09-06T03:12:05.308Z,997.91
2018-09-06T03:13:05.551Z,997.88
2018-09-06T03:14:05.295Z,997.85
2018-09-06T03:15:05.289Z,997.84
2018-09-06T03:16:05.285Z,997.79
2018-09-06T03:17:05.280Z,997.77
2018-09-06T03:18:05.274Z,997.73
2018-09-06T03:19:05.270Z,997.72
2018-09-06T03:20:05.264Z,997.67
2018-09-06T03:21:05.260Z,997.67
2018-09-06T03:22:05.255Z,997.71
2018-09-06T03:23:05.249Z,997.70
2018-09-06T03:24:05.247Z,997.73
2018-09-06T03:25:05.242Z,997.70
2018-09-06T03:26:05.235Z,997.67
2018-09-06T03:27:05.229Z,997.66
2018-09-06T03:28:05.223Z,997.68
2018-09-06T03:29:05.219Z,997.73
2018-09-06T03:30:05.214Z,997.75
2018-09-06T03:31:05.211Z,997.79
2018-09-06T03:32:05.203Z,997.82
2018-09-06T03:33:05.198Z,997.92
2018-09-06T03:34:05.196Z,997.95
2018-09-06T03:35:05.187Z,998.02
2018-09-06T03:36:05.257Z,998.08
2018-09-06T03:37:05.177Z,998.21
2018-09-06T03:38:05.172Z,998.28
2018-09-06T03:39:05.164Z,998.30
2018-09-06T03:40:05.161Z,998.31
2018-09-06T03:41:05.156Z,998.33
2018-09-06T03:42:05.152Z,998.31
2018-09-06T03:43:05.145Z,998.23
2018-09-06T03:44:05.140Z,998.24
2018-09-06T03:45:05.134Z,998.19
2018-09-06T03:46:05.133Z,998.20
2018-09-06T03:47:05.123Z,998.23
2018-09-06T03:48:05.119Z,998.22
2018-09-06T03:49:05.116Z,998.27
2018-09-06T03:50:05.108Z,998.26
2018-09-06T03:51:05.104Z,998.23
2018-09-06T03:52:05.099Z,998.18
2018-09-06T03:53:05.094Z,998.12
2018-09-06T03:54:05.090Z,998.05
2018-09-06T03:55:05.085Z,998.02
2018-09-06T03:56:05.079Z,998.03
2018-09-06T03:57:05.073Z,998.05
2018-09-06T03:58:05.069Z,998.03
2018-09-06T03:59:05.063Z,998.03
2018-09-06T04:00:05.061Z,998.00
2018-09-06T04:01:05.058Z,997.94
2018-09-06T04:02:05.049Z,997.91
2018-09-06T04:03:05.044Z,997.96
2018-09-06T04:04:05.039Z,997.89
2018-09-06T04:05:05.035Z,997.85
2018-09-06T04:06:05.030Z,997.84
2018-09-06T04:07:05.025Z,997.78
2018-09-06T04:08:05.020Z,997.78
2018-09-06T04:09:05.018Z,997.77
2018-09-06T04:10:05.012Z,997.74
2018-09-06T04:11:05.009Z,997.74
2018-09-06T04:12:05.005Z,997.71
2018-09-06T04:13:04.996Z,997.72
2018-09-06T04:14:04.990Z,997.69
2018-09-06T04:15:04.988Z,997.67
2018-09-06T04:16:04.984Z,997.69
2018-09-06T04:17:05.027Z,997.69
2018-09-06T04:18:04.971Z,997.70
2018-09-06T04:19:04.967Z,997.73
2018-09-06T04:20:04.961Z,997.73
2018-09-06T04:21:04.960Z,997.72
2018-09-06T04:22:04.953Z,997.70
2018-09-06T04:23:04.956Z,997.70
2018-09-06T04:24:04.944Z,997.62
2018-09-06T04:25:04.938Z,997.64
2018-09-06T04:26:04.935Z,997.64
2018-09-06T04:27:04.929Z,997.65
2018-09-06T04:28:04.924Z,997.63
2018-09-06T04:29:04.918Z,997.59
2018-09-06T04:30:04.913Z,997.63
2018-09-06T04:31:04.908Z,997.62
2018-09-06T04:32:04.904Z,997.60
2018-09-06T04:33:04.898Z,997.61
2018-09-06T04:34:04.895Z,997.61
2018-09-06T04:35:04.885Z,997.60
2018-09-06T04:36:04.884Z,997.63
2018-09-06T04:37:04.877Z,997.64
2018-09-06T04:38:04.871Z,997.64
2018-09-06T04:39:04.867Z,997.63
2018-09-06T04:40:04.858Z,997.63
2018-09-06T04:41:04.863Z,997.66
2018-09-06T04:42:04.853Z,997.67
2018-09-06T04:43:04.841Z,997.64
2018-09-06T04:44:04.837Z,997.61
2018-09-06T04:45:04.837Z,997.63
2018-09-06T04:46:04.824Z,997.56
2018-09-06T04:47:04.819Z,997.57
2018-09-06T04:48:04.814Z,997.56
2018-09-06T04:49:04.808Z,997.60
2018-09-06T04:50:04.804Z,997.65
2018-09-06T04:51:04.795Z,997.67
2018-09-06T04:52:04.797Z,997.69
2018-09-06T04:59:04.751Z,997.69
2018-09-06T05:00:04.746Z,997.67
2018-09-06T05:01:04.740Z,997.69
2018-09-06T05:02:04.735Z,997.71
2018-09-06T05:03:04.732Z,997.68
2018-09-06T05:04:04.724Z,997.63
2018-09-06T05:05:04.717Z,997.66
2018-09-06T05:06:04.713Z,997.63
2018-09-06T05:07:04.709Z,997.56
2018-09-06T05:08:04.704Z,997.63
2018-09-06T05:09:04.695Z,997.64
2018-09-06T05:10:04.690Z,997.63
2018-09-06T05:11:04.934Z,997.63
2018-09-06T05:12:04.678Z,997.63
2018-09-06T05:13:04.675Z,997.63
2018-09-06T05:14:04.669Z,997.63
2018-09-06T05:15:04.662Z,997.62
2018-09-06T05:16:04.656Z,997.62
2018-09-06T05:17:04.652Z,997.59
2018-09-06T05:18:04.653Z,997.62
2018-09-06T05:19:04.641Z,997.58
2018-09-06T05:20:04.635Z,997.59
2018-09-06T05:21:04.631Z,997.53
2018-09-06T05:22:04.698Z,997.56
2018-09-06T05:23:04.620Z,997.54
2018-09-06T05:24:04.618Z,997.52
2018-09-06T05:25:04.615Z,997.47
2018-09-06T05:26:04.604Z,997.49
2018-09-06T05:27:04.599Z,997.44
2018-09-06T05:28:04.597Z,997.42
2018-09-06T05:29:04.591Z,997.42
2018-09-06T05:30:04.585Z,997.41
2018-09-06T05:31:04.579Z,997.42
2018-09-06T05:32:04.574Z,997.40
2018-09-06T05:33:04.569Z,997.42
2018-09-06T05:34:04.564Z,997.35
2018-09-06T05:35:04.593Z,997.32
2018-09-06T05:36:04.572Z,997.32
2018-09-06T05:37:04.549Z,997.34
2018-09-06T05:38:04.543Z,997.30
2018-09-06T05:39:04.537Z,997.31
2018-09-06T05:40:04.535Z,997.32
2018-09-06T05:41:04.527Z,997.34
2018-09-06T05:42:04.525Z,997.38
2018-09-06T05:43:04.518Z,997.37
2018-09-06T05:44:04.514Z,997.35
2018-09-06T05:45:04.507Z,997.36
2018-09-06T05:46:04.503Z,997.34
2018-09-06T05:47:04.499Z,997.35
2018-09-06T05:48:04.491Z,997.34
2018-09-06T05:49:04.487Z,997.38
2018-09-06T05:50:04.731Z,997.35
2018-09-06T05:51:04.475Z,997.35
2018-09-06T05:52:04.475Z,997.37
2018-09-06T05:53:04.465Z,997.41
2018-09-06T05:54:04.460Z,997.41
2018-09-06T05:55:04.459Z,997.35
2018-09-06T05:56:04.450Z,997.36
2018-09-06T05:57:04.444Z,997.38
2018-09-06T05:58:04.486Z,997.40
2018-09-06T05:59:04.433Z,997.44
2018-09-06T06:00:04.467Z,997.43
2018-09-06T06:01:04.426Z,997.39
2018-09-06T06:02:04.422Z,997.41
2018-09-06T06:03:04.415Z,997.38
2018-09-06T06:04:04.408Z,997.38
2018-09-06T06:05:04.404Z,997.39
2018-09-06T06:06:04.403Z,997.40
2018-09-06T06:07:04.397Z,997.40
2018-09-06T06:08:04.388Z,997.37
2018-09-06T06:09:04.384Z,997.38
2018-09-06T06:10:04.379Z,997.40
2018-09-06T06:11:04.376Z,997.40
2018-09-06T06:12:04.373Z,997.42
2018-09-06T06:13:04.364Z,997.39
2018-09-06T06:14:04.360Z,997.39
2018-09-06T06:15:04.556Z,997.40
2018-09-06T06:16:04.452Z,997.41
2018-09-06T06:17:04.347Z,997.37
2018-09-06T06:18:04.341Z,997.38
2018-09-06T06:19:04.334Z,997.38
2018-09-06T06:20:04.384Z,997.38
2018-09-06T06:21:04.326Z,997.41
2018-09-06T06:22:04.321Z,997.41
2018-09-06T06:23:04.315Z,997.40
2018-09-06T06:24:04.312Z,997.46
2018-09-06T06:25:04.307Z,997.42
2018-09-06T06:26:04.341Z,997.44
2018-09-06T06:27:04.300Z,997.45
2018-09-06T06:28:04.293Z,997.40
2018-09-06T06:29:04.287Z,997.41
2018-09-06T06:31:04.279Z,997.44
2018-09-06T06:32:04.320Z,997.44
2018-09-06T06:33:04.272Z,997.45
2018-09-06T06:34:04.338Z,997.46
2018-09-06T06:35:04.260Z,997.43
2018-09-06T06:36:04.259Z,997.45
2018-09-06T06:37:04.256Z,997.44
2018-09-06T06:38:04.247Z,997.47
2018-09-06T06:39:04.242Z,997.45
2018-09-06T06:40:04.238Z,997.39
2018-09-06T06:41:04.234Z,997.42
2018-09-06T06:42:04.234Z,997.42
2018-09-06T06:43:04.222Z,997.40
2018-09-06T06:44:04.219Z,997.37
2018-09-06T06:45:04.220Z,997.35
2018-09-06T06:46:04.214Z,997.37
2018-09-06T06:47:04.206Z,997.36
2018-09-06T06:48:04.200Z,997.38
2018-09-06T06:49:04.196Z,997.39
2018-09-06T06:50:04.193Z,997.39
2018-09-06T06:51:04.187Z,997.37
2018-09-06T06:52:04.183Z,997.36
2018-09-06T06:53:04.179Z,997.37
2018-09-06T06:54:04.175Z,997.36
2018-09-06T06:55:04.171Z,997.38
2018-09-06T06:56:04.165Z,997.37
2018-09-06T06:57:04.160Z,997.36
2018-09-06T06:58:04.158Z,997.36
2018-09-06T06:59:04.153Z,997.36
2018-09-06T07:00:04.147Z,997.40
2018-09-06T07:01:04.175Z,997.40
2018-09-06T07:02:04.141Z,997.39
2018-09-06T07:03:04.133Z,997.40
2018-09-06T07:04:04.133Z,997.37
2018-09-06T07:05:04.128Z,997.41
2018-09-06T07:06:04.120Z,997.42
2018-09-06T07:07:04.446Z,997.38
2018-09-06T07:08:04.112Z,997.40
2018-09-06T07:09:04.106Z,997.41
2018-09-06T07:10:04.107Z,997.42
2018-09-06T07:11:04.099Z,997.40
2018-09-06T07:12:04.344Z,997.42
2018-09-06T07:13:04.089Z,997.45
2018-09-06T07:14:04.086Z,997.47
2018-09-06T07:15:04.083Z,997.43
2018-09-06T07:16:04.079Z,997.45
2018-09-06T07:17:04.073Z,997.44
2018-09-06T07:18:04.119Z,997.47
2018-09-06T07:19:04.065Z,997.46
2018-09-06T07:20:04.059Z,997.48
2018-09-06T07:21:04.054Z,997.48
2018-09-06T07:22:04.055Z,997.47
2018-09-06T07:23:04.297Z,997.52
2018-09-06T07:24:04.042Z,997.52
2018-09-06T07:25:04.079Z,997.52
2018-09-06T07:26:04.034Z,997.52
2018-09-06T07:27:04.028Z,997.53
2018-09-06T07:28:04.030Z,997.55
2018-09-06T07:29:04.021Z,997.55
2018-09-06T07:30:04.016Z,997.57
2018-09-06T07:31:04.013Z,997.56
2018-09-06T07:32:04.008Z,997.60
2018-09-06T07:33:04.005Z,997.63
2018-09-06T07:34:03.999Z,997.61
2018-09-06T07:35:03.997Z,997.62
2018-09-06T07:36:03.989Z,997.59
2018-09-06T07:37:03.985Z,997.58
2018-09-06T07:38:03.980Z,997.57
2018-09-06T07:39:03.979Z,997.56
2018-09-06T07:40:03.980Z,997.55
2018-09-06T07:41:03.972Z,997.57
2018-09-06T07:42:03.964Z,997.56
2018-09-06T07:43:03.959Z,997.57
2018-09-06T07:44:03.954Z,997.57
2018-09-06T07:45:03.950Z,997.55
2018-09-06T07:46:03.949Z,997.57
2018-09-06T07:47:03.942Z,997.57
2018-09-06T07:48:03.938Z,997.57
2018-09-06T07:49:03.936Z,997.58
2018-09-06T07:50:03.998Z,997.61
2018-09-06T07:51:03.924Z,997.58
2018-09-06T07:52:03.921Z,997.59
2018-09-06T07:53:03.918Z,997.58
2018-09-06T07:54:03.914Z,997.61
2018-09-06T07:55:03.908Z,997.62
2018-09-06T07:56:03.904Z,997.66
2018-09-06T07:57:03.900Z,997.64
2018-09-06T07:58:03.895Z,997.67
2018-09-06T07:59:03.891Z,997.68
2018-09-06T08:00:03.889Z,997.70
2018-09-06T08:01:03.886Z,997.71
2018-09-06T08:02:03.879Z,997.77
2018-09-06T08:03:03.874Z,997.76
2018-09-06T08:04:03.878Z,997.79
2018-09-06T08:05:03.868Z,997.81
2018-09-06T08:06:03.862Z,997.78
2018-09-06T08:07:03.856Z,997.78
2018-09-06T08:08:03.851Z,997.82
2018-09-06T08:09:03.851Z,997.80
2018-09-06T08:10:03.848Z,997.82
2018-09-06T08:11:03.839Z,997.81
2018-09-06T08:12:03.892Z,997.79
2018-09-06T08:13:03.829Z,997.77
2018-09-06T08:14:03.825Z,997.80
2018-09-06T08:15:03.820Z,997.81
2018-09-06T08:16:03.815Z,997.80
2018-09-06T08:17:03.810Z,997.81
2018-09-06T08:18:03.807Z,997.81
2018-09-06T08:19:03.806Z,997.84
2018-09-06T08:20:03.795Z,997.82
2018-09-06T08:21:03.798Z,997.84
2018-09-06T08:22:03.786Z,997.84
2018-09-06T08:23:03.781Z,997.83
2018-09-06T08:24:03.776Z,997.82
2018-09-06T08:25:03.773Z,997.84
2018-09-06T08:26:03.773Z,997.83
2018-09-06T08:27:03.764Z,997.79
2018-09-06T08:28:03.759Z,997.81
2018-09-06T08:29:03.757Z,997.79
2018-09-06T08:30:03.750Z,997.81
2018-09-06T08:31:03.762Z,997.83
2018-09-06T08:32:03.738Z,997.83
2018-09-06T08:33:03.737Z,997.78
2018-09-06T08:34:03.731Z,997.82
2018-09-06T08:35:03.727Z,997.82
2018-09-06T08:36:03.720Z,997.79
2018-09-06T08:37:03.725Z,997.77
2018-09-06T08:38:03.710Z,997.77
2018-09-06T08:39:03.705Z,997.75
2018-09-06T08:40:03.702Z,997.78
2018-09-06T08:41:03.698Z,997.73
2018-09-06T08:42:04.493Z,997.75
2018-09-06T08:43:03.688Z,997.76
2018-09-06T08:44:03.681Z,997.78
2018-09-06T08:45:03.681Z,997.75
2018-09-06T08:46:03.673Z,997.79
2018-09-06T08:47:03.678Z,997.75
2018-09-06T08:48:03.663Z,997.77
2018-09-06T08:49:03.658Z,997.78
2018-09-06T08:50:03.652Z,997.80
2018-09-06T08:51:03.650Z,997.79
2018-09-06T08:52:03.684Z,997.79
2018-09-06T08:53:03.639Z,997.79
2018-09-06T08:54:03.635Z,997.80
2018-09-06T08:55:03.629Z,997.79
2018-09-06T08:56:03.628Z,997.80
2018-09-06T08:57:03.623Z,997.85
2018-09-06T08:58:03.620Z,997.82
2018-09-06T08:59:03.611Z,997.87
2018-09-06T09:00:03.608Z,997.83
2018-09-06T09:01:03.605Z,997.83
2018-09-06T09:02:03.676Z,997.85
2018-09-06T09:03:03.645Z,997.81
2018-09-06T09:04:03.595Z,997.84
2018-09-06T09:05:03.584Z,997.82
2018-09-06T09:06:03.602Z,997.82
2018-09-06T09:07:03.577Z,997.85
2018-09-06T09:08:03.572Z,997.86
2018-09-06T09:09:03.568Z,997.89
2018-09-06T09:10:03.565Z,997.85
2018-09-06T09:11:03.560Z,997.88
2018-09-06T09:12:03.555Z,997.84
2018-09-06T09:13:03.605Z,997.85
2018-09-06T09:14:03.547Z,997.89
2018-09-06T09:15:03.540Z,997.85
2018-09-06T09:16:03.541Z,997.87
2018-09-06T09:17:03.533Z,997.85
2018-09-06T09:18:03.531Z,997.83
2018-09-06T09:19:03.523Z,997.80
2018-09-06T09:20:03.519Z,997.80
2018-09-06T09:21:03.518Z,997.80
2018-09-06T09:22:03.588Z,997.82
2018-09-06T09:23:03.505Z,997.79
2018-09-06T09:24:03.500Z,997.83
2018-09-06T09:25:03.497Z,997.87
2018-09-06T09:26:03.496Z,997.83
2018-09-06T09:27:03.487Z,997.83
2018-09-06T09:28:03.485Z,997.82
2018-09-06T09:29:03.478Z,997.86
2018-09-06T09:30:03.474Z,997.83
2018-09-06T09:31:03.470Z,997.85
2018-09-06T09:32:03.466Z,997.86
2018-09-06T09:33:03.461Z,997.86
2018-09-06T09:34:03.459Z,997.84
2018-09-06T09:35:03.451Z,997.85
2018-09-06T09:36:03.484Z,997.82
2018-09-06T09:37:03.443Z,997.83
2018-09-06T09:38:03.443Z,997.82
2018-09-06T09:39:03.437Z,997.80
2018-09-06T09:40:03.432Z,997.80
2018-09-06T09:41:03.425Z,997.78
2018-09-06T09:42:03.424Z,997.81
2018-09-06T09:43:03.417Z,997.76
2018-09-06T09:44:03.413Z,997.71
2018-09-06T09:45:03.408Z,997.71
2018-09-06T09:48:02.737Z,997.69
2018-09-06T09:49:02.733Z,997.68
2018-09-06T09:50:02.732Z,997.65
2018-09-06T09:51:02.726Z,997.66
2018-09-06T09:52:02.720Z,997.64
2018-09-06T09:53:02.716Z,997.62
2018-09-06T09:54:02.712Z,997.63
2018-09-06T09:55:02.706Z,997.57
2018-09-06T09:56:02.701Z,997.62
2018-09-06T09:57:02.765Z,997.62
2018-09-06T09:58:02.694Z,997.59
2018-09-06T09:59:02.894Z,997.61
2018-09-06T10:00:02.687Z,997.63
2018-09-06T10:01:02.681Z,997.64
2018-09-06T10:02:02.677Z,997.63
2018-09-06T10:03:02.675Z,997.58
2018-09-06T10:04:02.668Z,997.60
2018-09-06T10:05:02.664Z,997.56
2018-09-06T10:06:02.664Z,997.56
2018-09-06T10:07:02.656Z,997.53
2018-09-06T10:08:02.652Z,997.53
2018-09-06T10:09:02.649Z,997.54
2018-09-06T10:10:02.645Z,997.49
2018-09-06T10:11:02.640Z,997.54
2018-09-06T10:12:02.639Z,997.52
2018-09-06T10:13:02.635Z,997.52
2018-09-06T10:14:02.831Z,997.54
2018-09-06T10:15:02.625Z,997.54
2018-09-06T10:16:02.620Z,997.56
2018-09-06T10:17:02.617Z,997.49
2018-09-06T10:18:02.657Z,997.59
2018-09-06T10:19:02.608Z,997.55
2018-09-06T10:20:02.607Z,997.56
2018-09-06T10:21:02.599Z,997.60
2018-09-06T10:22:02.596Z,997.60
2018-09-06T10:23:02.596Z,997.59
2018-09-06T10:24:02.588Z,997.59
2018-09-06T10:25:02.586Z,997.54
2018-09-06T10:26:02.579Z,997.56
2018-09-06T10:27:02.574Z,997.59
2018-09-06T10:28:02.572Z,997.55
2018-09-06T10:29:02.568Z,997.53
2018-09-06T10:30:02.568Z,997.56
2018-09-06T10:31:02.561Z,997.57
2018-09-06T10:32:02.556Z,997.56
2018-09-06T10:33:02.553Z,997.57
2018-09-06T10:34:02.551Z,997.51
2018-09-06T10:35:02.545Z,997.56
2018-09-06T10:36:02.540Z,997.55
2018-09-06T10:37:02.536Z,997.54
2018-09-06T10:38:02.533Z,997.55
2018-09-06T10:39:02.528Z,997.53
2018-09-06T10:40:02.610Z,997.54
2018-09-06T10:41:02.520Z,997.55
2018-09-06T10:42:02.517Z,997.50
2018-09-06T10:43:02.772Z,997.49
2018-09-06T10:44:02.711Z,997.51
2018-09-06T10:45:02.509Z,997.52
2018-09-06T10:46:02.506Z,997.47
2018-09-06T10:47:02.501Z,997.50
2018-09-06T10:48:02.494Z,997.44
2018-09-06T10:50:02.491Z,997.46
2018-09-06T10:51:02.485Z,997.44
2018-09-06T10:52:02.482Z,997.42
2018-09-06T10:53:02.481Z,997.44
2018-09-06T10:54:02.683Z,997.41
2018-09-06T10:55:02.474Z,997.46
2018-09-06T10:56:02.470Z,997.44
2018-09-06T10:57:02.468Z,997.36
2018-09-06T10:58:02.467Z,997.36
2018-09-06T10:59:02.468Z,997.41
2018-09-06T11:00:02.458Z,997.33
2018-09-06T11:01:02.460Z,997.37
2018-09-06T11:02:02.456Z,997.37
2018-09-06T11:03:02.454Z,997.39
2018-09-06T11:04:02.447Z,997.37
2018-09-06T11:05:02.448Z,997.36
2018-09-06T11:06:02.444Z,997.35
2018-09-06T11:07:02.442Z,997.35
2018-09-06T11:08:02.504Z,997.38
2018-09-06T11:09:02.434Z,997.38
2018-09-06T11:10:02.433Z,997.37
2018-09-06T11:11:02.430Z,997.39
2018-09-06T11:12:02.433Z,997.40
2018-09-06T11:13:02.428Z,997.38
2018-09-06T11:14:02.424Z,997.37
2018-09-06T11:15:02.479Z,997.35
2018-09-06T11:16:02.420Z,997.36
2018-09-06T11:17:02.423Z,997.38
2018-09-06T11:18:02.423Z,997.30
2018-09-06T11:19:02.411Z,997.35
2018-09-06T11:20:02.409Z,997.35
2018-09-06T11:21:02.475Z,997.40
2018-09-06T11:22:02.760Z,997.34
2018-09-06T11:23:02.401Z,997.36
2018-09-06T11:24:02.400Z,997.35
2018-09-06T11:26:02.395Z,997.27
2018-09-06T11:27:02.392Z,997.29
2018-09-06T11:28:02.391Z,997.33
2018-09-06T11:29:02.389Z,997.27
2018-09-06T11:30:02.388Z,997.29
2018-09-06T11:31:02.390Z,997.32
2018-09-06T11:32:02.389Z,997.29
2018-09-06T11:33:02.486Z,997.25
2018-09-06T11:34:02.389Z,997.25
2018-09-06T11:35:02.387Z,997.25
2018-09-06T11:36:02.387Z,997.25
2018-09-06T11:37:02.385Z,997.22
2018-09-06T11:38:02.389Z,997.24
2018-09-06T11:39:02.384Z,997.21
2018-09-06T11:40:02.409Z,997.22
2018-09-06T11:41:02.391Z,997.24
2018-09-06T11:42:02.388Z,997.20
2018-09-06T11:43:02.388Z,997.22
2018-09-06T11:44:02.388Z,997.23
2018-09-06T11:45:02.388Z,997.16
2018-09-06T11:46:02.427Z,997.16
2018-09-06T11:47:02.392Z,997.23
2018-09-06T11:48:02.388Z,997.18
2018-09-06T11:49:02.389Z,997.22
2018-09-06T11:50:02.388Z,997.21
2018-09-06T11:51:02.387Z,997.23
2018-09-06T11:52:02.387Z,997.21
2018-09-06T11:53:02.388Z,997.20
2018-09-06T11:54:02.385Z,997.20
2018-09-06T11:55:02.387Z,997.17
2018-09-06T11:56:02.385Z,997.18
2018-09-06T11:57:02.383Z,997.16
2018-09-06T11:58:02.384Z,997.15
2018-09-06T11:59:02.383Z,997.15
2018-09-06T12:00:02.380Z,997.12
2018-09-06T12:01:02.383Z,997.10
2018-09-06T12:02:02.386Z,997.12
2018-09-06T12:03:02.377Z,997.09
2018-09-06T12:04:02.380Z,997.11
2018-09-06T12:05:02.376Z,997.10
2018-09-06T12:06:02.432Z,997.10
2018-09-06T12:07:02.373Z,997.10
2018-09-06T12:08:02.371Z,997.03
2018-09-06T12:09:02.372Z,997.04
2018-09-06T12:10:02.373Z,997.08
2018-09-06T12:11:02.373Z,997.09
2018-09-06T12:12:02.368Z,997.05
2018-09-06T12:13:02.367Z,997.05
2018-09-06T12:14:02.366Z,997.01
2018-09-06T12:15:02.364Z,997.01
2018-09-06T12:16:02.363Z,997.02
2018-09-06T12:17:02.362Z,996.99
2018-09-06T12:18:02.364Z,996.97
2018-09-06T12:19:02.358Z,996.95
2018-09-06T12:20:02.361Z,996.94
2018-09-06T12:21:02.360Z,996.91
2018-09-06T12:22:02.356Z,996.90
2018-09-06T12:23:02.357Z,996.88
2018-09-06T12:24:02.350Z,996.89
2018-09-06T12:25:02.350Z,996.85
2018-09-06T12:26:02.348Z,996.87
2018-09-06T12:27:02.350Z,996.85
2018-09-06T12:28:02.343Z,996.84
2018-09-06T12:29:02.343Z,996.83
2018-09-06T12:30:02.344Z,996.85
2018-09-06T12:31:02.342Z,996.84
2018-09-06T12:32:02.344Z,996.84
2018-09-06T12:33:02.388Z,996.86
2018-09-06T12:34:02.335Z,996.84
2018-09-06T12:35:02.333Z,996.88
2018-09-06T12:36:02.332Z,996.87
2018-09-06T12:37:02.331Z,996.92
2018-09-06T12:38:02.330Z,996.87
2018-09-06T12:39:02.330Z,996.89